Canefield Airport

Cloudy wih slight haze
29oC (84oF)

Cloudy wih slight haze


Winds: Southerly @ 02kts / 04km/h

Humidity: 78%

Barometric Pressure: 1011 mb

Accumulated Rainfall for October: 95.3 mm

Updated: 15:00 local time (19:00 UTC)

Douglas-Charles Airport

Cloudy with light showers
26oC (79oF)

Cloudy with light showers


Winds: East south easterly @ 08kts / 15km/h

Humidity: 87%

Barometric Pressure: 1016 mb

Accumulated Rainfall for October: 231.4 mm

Updated: 7:00 local time (11:00 UTC)

Satellite Imagery

Satellite Imagery
Click image for larger view. (Source: National Hurricane Center).

Aviation Routine Report (METAR)

Douglas-Charles: METAR TDPD 161500Z 9999 -SHRA BKN014 26/24 Q1016=
Canefield: METAR TDCF 161900Z 18002KT 9999 FEW018 29/24 Q1011=